createdAt,value
2023-01-24T00:11:53.577Z,1.02
2023-01-24T00:17:25.601Z,1.58
2023-01-24T00:20:51.239Z,0.60
2023-01-24T00:33:19.714Z,2.90
2023-01-24T00:36:40.319Z,0.80
2023-01-24T00:40:21.702Z,0.45
2023-01-24T00:42:56.670Z,1.38
2023-01-24T00:45:48.416Z,0.38
2023-01-24T00:48:38.078Z,1.40
2023-01-24T00:51:12.623Z,1.50
2023-01-24T00:54:04.043Z,1.13
2023-01-24T00:56:47.865Z,0.88
2023-01-24T01:05:05.719Z,0.77
2023-01-24T01:07:41.816Z,0.80
2023-01-24T01:10:17.542Z,1.27
2023-01-24T01:12:56.586Z,1.48
2023-01-24T08:39:46.175Z,9.43
2023-01-24T08:42:13.933Z,7.53
2023-01-24T08:44:44.412Z,8.20
2023-01-24T08:47:11.902Z,8.15
2023-01-24T08:49:39.668Z,8.90
2023-01-24T08:52:07.989Z,9.07
2023-01-24T08:54:36.940Z,8.55
2023-01-24T08:57:05.314Z,6.45
2023-01-24T08:59:33.029Z,6.93
2023-01-24T09:02:01.163Z,4.80
2023-01-24T09:04:29.741Z,7.32
2023-01-24T09:06:59.954Z,7.03
2023-01-24T09:09:28.931Z,5.90
2023-01-24T09:11:56.946Z,4.70
2023-01-24T09:14:27.795Z,6.18
2023-01-24T09:16:55.812Z,6.55
2023-01-24T09:19:25.142Z,8.20
2023-01-24T09:21:57.981Z,6.38
2023-01-24T09:24:26.808Z,6.15
2023-01-24T09:26:58.356Z,6.38
2023-01-24T09:29:28.870Z,7.82
2023-01-24T09:31:59.463Z,6.57
2023-01-24T09:34:27.396Z,4.68
2023-01-24T09:37:11.419Z,4.80
2023-01-24T09:43:42.810Z,2.90
2023-01-24T09:46:27.664Z,4.78
2023-01-24T09:52:53.260Z,4.93
2023-01-24T09:55:44.836Z,4.10
2023-01-24T09:58:38.233Z,5.28
2023-01-24T10:01:37.448Z,4.18
2023-01-24T10:04:52.227Z,4.43
2023-01-24T10:08:35.053Z,3.75
2023-01-24T10:12:06.648Z,4.47
2023-01-24T10:23:07.449Z,3.75
2023-01-24T10:26:56.453Z,3.63
2023-01-24T10:36:12.144Z,4.50
2023-01-24T10:38:48.869Z,3.03
2023-01-24T10:48:00.712Z,5.30
2023-01-24T10:50:36.829Z,3.33
2023-01-24T10:53:28.048Z,4.18
2023-01-24T10:56:02.764Z,4.75
2023-01-24T10:58:58.587Z,4.82
2023-01-24T11:01:51.046Z,4.45
2023-01-24T11:04:30.817Z,5.82
2023-01-24T11:18:14.515Z,4.53
2023-01-24T11:20:45.569Z,3.95
2023-01-24T11:23:25.716Z,4.50
2023-01-24T11:25:58.503Z,4.82
2023-01-24T11:29:03.859Z,6.55
2023-01-24T11:32:36.749Z,4.00
2023-01-24T11:38:34.519Z,7.03
2023-01-24T11:44:42.407Z,4.10
2023-01-24T11:47:14.906Z,3.90
2023-01-24T11:49:56.720Z,2.55
2023-01-24T11:53:03.148Z,3.28
2023-01-24T11:55:44.906Z,2.72
2023-01-24T11:58:34.469Z,3.75
2023-01-24T12:01:27.518Z,3.20
2023-01-24T12:04:36.299Z,4.65
2023-01-24T12:07:32.629Z,3.88
2023-01-24T12:10:31.500Z,3.63
2023-01-24T12:13:37.315Z,4.40
2023-01-24T12:16:25.098Z,3.28
2023-01-24T12:19:25.159Z,1.80
2023-01-24T12:21:59.364Z,2.22
2023-01-24T12:24:34.193Z,2.60
2023-01-24T12:27:11.976Z,2.08
2023-01-24T12:29:42.753Z,3.50
2023-01-24T12:32:26.863Z,9.88
2023-01-24T12:35:16.995Z,1.83
2023-01-24T12:38:12.502Z,1.83
2023-01-24T12:40:53.102Z,2.90
2023-01-24T12:43:30.942Z,2.95
2023-01-24T12:46:17.755Z,2.22
2023-01-24T12:49:20.325Z,2.25
2023-01-24T12:52:09.185Z,3.05
2023-01-24T12:55:07.792Z,2.33
2023-01-24T12:58:00.428Z,2.17
2023-01-24T13:00:57.589Z,2.72
2023-01-24T13:03:55.663Z,4.03
2023-01-24T13:09:51.906Z,1.70
2023-01-24T13:12:28.704Z,3.40
2023-01-24T13:15:16.208Z,1.88
2023-01-24T13:18:02.447Z,2.15
2023-01-24T13:20:49.141Z,2.20
2023-01-24T13:23:49.297Z,2.80
2023-01-24T13:26:49.972Z,3.03
2023-01-24T13:29:27.475Z,2.67
2023-01-24T13:32:15.644Z,3.70
2023-01-24T13:34:51.808Z,1.63
2023-01-24T13:37:34.079Z,3.28
2023-01-24T13:40:19.448Z,3.80
2023-01-24T13:42:58.987Z,2.03
2023-01-24T13:45:37.138Z,1.75
2023-01-24T13:48:49.091Z,1.98
2023-01-24T13:51:23.726Z,3.55
2023-01-24T13:54:21.497Z,2.13
2023-01-24T13:57:13.934Z,1.70
2023-01-24T13:59:48.971Z,1.52
2023-01-24T14:02:49.421Z,1.63
2023-01-24T14:05:28.943Z,1.77
2023-01-24T14:08:17.002Z,3.58
2023-01-24T14:11:07.181Z,2.20
2023-01-24T14:13:55.244Z,2.92
2023-01-24T14:16:29.692Z,2.15
2023-01-24T14:19:36.221Z,4.25
2023-01-24T14:22:14.969Z,3.03
2023-01-24T14:25:13.522Z,3.45
2023-01-24T14:27:50.717Z,4.05
2023-01-24T14:30:53.590Z,1.45
2023-01-24T14:33:53.317Z,3.70
2023-01-24T14:36:33.455Z,1.85
2023-01-24T14:39:24.292Z,2.72
2023-01-24T14:41:55.971Z,3.17
2023-01-24T14:44:29.618Z,2.63
2023-01-24T14:47:00.784Z,4.22
2023-01-24T14:49:43.208Z,4.07
2023-01-24T16:44:39.197Z,12.02
2023-01-24T16:55:13.040Z,7.22
2023-01-24T16:57:45.549Z,8.95
2023-01-24T17:00:26.208Z,7.90
2023-01-24T17:02:57.066Z,8.05
2023-01-24T17:05:30.609Z,11.27
2023-01-24T17:08:02.996Z,10.95
2023-01-24T17:10:31.962Z,11.45
2023-01-24T17:16:16.828Z,8.57
2023-01-24T17:18:51.929Z,10.68
2023-01-24T17:21:21.588Z,9.25
2023-01-24T17:24:00.966Z,11.45
2023-01-24T17:26:31.747Z,9.98
2023-01-24T17:28:59.249Z,11.63
2023-01-24T17:34:27.041Z,10.70
2023-01-24T17:36:55.693Z,8.85
2023-01-24T17:43:47.488Z,9.02
2023-01-24T17:55:55.547Z,7.80
2023-01-24T18:01:31.190Z,10.98
2023-01-24T18:07:57.794Z,8.35
2023-01-24T18:10:39.137Z,11.80
2023-01-24T18:13:11.225Z,11.02
2023-01-24T18:16:22.976Z,10.07
2023-01-24T18:19:01.168Z,12.75
2023-01-24T18:21:36.922Z,11.73
2023-01-24T18:24:07.730Z,13.38
2023-01-24T18:26:49.268Z,12.57
2023-01-24T18:29:26.979Z,13.02
2023-01-24T18:31:54.891Z,13.02
2023-01-24T18:34:35.140Z,10.00
2023-01-24T18:37:17.550Z,9.85
2023-01-24T18:39:55.726Z,11.27
2023-01-24T18:42:23.692Z,11.45
2023-01-24T18:44:52.307Z,9.65
2023-01-24T18:47:26.773Z,16.20
2023-01-24T18:49:58.833Z,12.75
2023-01-24T18:52:26.442Z,12.43
2023-01-24T18:55:00.240Z,15.23
2023-01-24T18:57:27.898Z,14.02
2023-01-24T18:59:58.684Z,16.60
2023-01-24T19:02:27.571Z,10.32
2023-01-24T19:05:00.707Z,12.95
2023-01-24T19:07:41.239Z,13.50
2023-01-24T19:10:30.542Z,11.30
2023-01-24T19:13:22.567Z,11.23
2023-01-24T19:16:09.735Z,11.23
2023-01-24T19:18:43.808Z,11.20
2023-01-24T19:21:21.603Z,9.60
2023-01-24T19:23:53.333Z,17.27
2023-01-24T19:26:26.126Z,25.58
2023-01-24T19:29:06.900Z,16.15
2023-01-24T19:34:32.655Z,10.25
2023-01-24T19:37:19.626Z,19.48
2023-01-24T19:39:52.656Z,16.35
2023-01-24T19:42:34.691Z,12.43
2023-01-24T19:45:17.822Z,15.77
2023-01-24T19:50:54.851Z,14.23
2023-01-24T19:53:40.343Z,14.80
2023-01-24T19:56:23.753Z,13.30
2023-01-24T19:59:00.927Z,12.50
2023-01-24T20:01:30.080Z,15.50
2023-01-24T20:04:02.826Z,10.63
2023-01-24T20:06:41.069Z,10.07
2023-01-24T20:09:20.685Z,12.48
2023-01-24T20:11:50.845Z,11.00
2023-01-24T20:14:19.932Z,11.45
2023-01-24T20:16:57.986Z,13.05
2023-01-24T20:19:31.088Z,12.98
2023-01-24T20:22:07.649Z,13.18
2023-01-24T20:24:40.001Z,10.90
2023-01-24T20:27:08.094Z,10.32
2023-01-24T20:29:36.733Z,11.48
2023-01-24T20:32:36.025Z,15.25
2023-01-24T20:35:07.454Z,16.60
2023-01-24T20:37:36.695Z,12.15
2023-01-24T20:40:07.057Z,14.05
2023-01-24T20:42:44.083Z,13.23
2023-01-24T20:45:11.850Z,10.30
2023-01-24T20:47:39.596Z,12.52
2023-01-24T20:50:09.227Z,14.40
2023-01-24T20:52:36.905Z,12.05
2023-01-24T20:55:05.238Z,11.63
2023-01-24T20:57:33.024Z,12.15
2023-01-24T21:00:00.546Z,12.48
2023-01-24T21:02:28.723Z,11.32
2023-01-24T21:04:56.413Z,12.38
2023-01-24T21:07:23.985Z,16.77
2023-01-24T21:09:51.719Z,11.85
2023-01-24T21:12:19.372Z,14.30
2023-01-24T21:14:47.105Z,15.73
2023-01-24T21:17:17.364Z,13.93
2023-01-24T21:19:44.954Z,14.45
2023-01-24T21:22:12.417Z,13.75
2023-01-24T21:24:40.178Z,16.38
2023-01-24T21:27:07.748Z,14.48
2023-01-24T21:29:37.320Z,13.93
2023-01-24T21:32:05.210Z,12.60
2023-01-24T21:34:32.978Z,15.18
2023-01-24T21:37:00.614Z,12.68
2023-01-24T21:39:28.219Z,15.57
2023-01-24T21:41:56.531Z,15.50
2023-01-24T21:44:26.604Z,15.07
2023-01-24T21:46:54.582Z,17.17
2023-01-24T21:49:23.122Z,17.98
2023-01-24T21:52:01.747Z,14.40
2023-01-24T21:54:34.506Z,13.50
2023-01-24T21:57:33.855Z,16.15
2023-01-24T22:00:07.312Z,13.88
2023-01-24T22:02:41.104Z,16.48
2023-01-24T22:05:09.507Z,12.15
2023-01-24T22:07:37.533Z,11.60
2023-01-24T22:10:07.748Z,11.45
2023-01-24T22:12:36.456Z,17.52
2023-01-24T22:15:08.279Z,14.45
2023-01-24T22:17:40.942Z,13.25
2023-01-24T22:20:17.711Z,12.68
2023-01-24T22:23:00.444Z,12.27
2023-01-24T22:35:05.696Z,11.15
2023-01-24T22:37:42.515Z,10.55
2023-01-24T22:40:16.439Z,10.88
2023-01-24T22:42:49.334Z,10.68
2023-01-24T22:45:18.390Z,13.85
2023-01-24T22:47:58.386Z,13.57
2023-01-24T22:50:31.888Z,13.20
2023-01-24T22:52:59.561Z,12.93
2023-01-24T22:55:27.954Z,11.57
2023-01-24T22:57:56.003Z,15.57
2023-01-24T23:00:23.614Z,13.65
2023-01-24T23:02:51.311Z,11.35
2023-01-24T23:05:18.894Z,10.63
2023-01-24T23:07:46.514Z,12.43
2023-01-24T23:10:15.062Z,11.43
2023-01-24T23:13:00.998Z,15.68
2023-01-24T23:15:47.307Z,15.40
2023-01-24T23:18:42.615Z,13.70
2023-01-24T23:21:30.168Z,13.05
2023-01-24T23:23:58.015Z,14.60
2023-01-24T23:26:25.990Z,13.68
2023-01-24T23:29:25.902Z,12.95
2023-01-24T23:31:54.673Z,14.45
2023-01-24T23:34:36.838Z,15.55
2023-01-24T23:37:04.885Z,16.50
2023-01-24T23:39:32.668Z,15.45
2023-01-24T23:42:00.324Z,14.13
2023-01-24T23:44:27.907Z,16.73
2023-01-24T23:46:59.756Z,17.67
2023-01-24T23:53:26.589Z,15.60
